Lenore, Idaho
Current Conditions -  °F | °C
As of 6:20 PM on Sunday 23 Nov 2014 (Local Time) from KLWS Reporting Station
Light Rain Light Rain  
Wind Chill: 40°   Ceiling: Unl
Heat Index: 46°   Visibility: 10mi
Dew Point: 35°   Wind: 15mph
Humidity: 66%   Direction: 270°W
Pressure: 30.1"   Gusts: NA
Location:  46.51°N, 116.55°W
Report Text: KLWS 240220Z 27013KT 10SM -RA CLR 08/02 A3010 RMK AO2 WSHFT 0200 P0000 T00780017
Loading
Personal Weather Stations






























Interactive Weather Map New forecast layout! Learn more

10-Day Weather Forecast

Advertisements
Track Severe Weather on mobile